createdAt,value
2023-09-08T00:00:14.406Z,96960.44
2023-09-08T00:02:44.313Z,96945.94
2023-09-08T00:05:12.890Z,96953.50
2023-09-08T00:07:41.368Z,96947.09
2023-09-08T00:10:10.579Z,96952.94
2023-09-08T00:12:38.908Z,96958.19
2023-09-08T00:15:09.845Z,96952.13
2023-09-08T00:17:42.133Z,96961.88
2023-09-08T00:20:10.858Z,96957.72
2023-09-08T00:22:40.553Z,96946.91
2023-09-08T00:25:09.449Z,96942.97
2023-09-08T00:27:38.028Z,96950.72
2023-09-08T00:30:07.181Z,96941.59
2023-09-08T00:32:35.968Z,96931.22
2023-09-08T00:35:05.828Z,96939.22
2023-09-08T00:37:34.882Z,96938.81
2023-09-08T00:40:04.516Z,96941.84
2023-09-08T00:42:32.858Z,96946.34
2023-09-08T00:45:01.075Z,96946.34
2023-09-08T00:47:30.415Z,96951.09
2023-09-08T00:49:59.778Z,96945.34
2023-09-08T00:52:28.034Z,96949.63
2023-09-08T00:54:57.172Z,96954.59
2023-09-08T00:57:25.861Z,96955.34
2023-09-08T00:59:55.696Z,96948.88
2023-09-08T01:02:24.457Z,96954.59
2023-09-08T01:04:52.885Z,96944.66
2023-09-08T01:07:22.587Z,96952.88
2023-09-08T01:09:51.869Z,96949.44
2023-09-08T01:12:22.321Z,96948.19
2023-09-08T01:14:50.637Z,96941.47
2023-09-08T01:17:19.360Z,96946.19
2023-09-08T01:19:50.035Z,96944.22
2023-09-08T01:22:28.595Z,96946.44
2023-09-08T01:25:20.156Z,96951.19
2023-09-08T01:27:54.151Z,96952.91
2023-09-08T01:30:22.977Z,96953.41
2023-09-08T01:32:53.343Z,96943.94
2023-09-08T01:35:23.826Z,96959.59
2023-09-08T01:37:54.697Z,96950.91
2023-09-08T01:40:24.439Z,96958.34
2023-09-08T01:42:53.587Z,96958.84
2023-09-08T01:45:22.281Z,96958.09
2023-09-08T01:47:55.073Z,96958.84
2023-09-08T01:50:24.220Z,96961.25
2023-09-08T01:52:52.868Z,96960.25
2023-09-08T01:55:21.968Z,96962.16
2023-09-08T01:57:50.288Z,96955.13
2023-09-08T02:00:18.990Z,96963.69
2023-09-08T02:02:48.086Z,96967.38
2023-09-08T02:05:17.288Z,96963.09
2023-09-08T02:07:45.677Z,96970.69
2023-09-08T02:10:14.193Z,96968.72
2023-09-08T02:12:42.707Z,96968.56
2023-09-08T02:15:12.099Z,96968.75
2023-09-08T02:17:40.443Z,96967.91
2023-09-08T02:20:10.042Z,96975.91
2023-09-08T02:22:39.227Z,96973.13
2023-09-08T02:25:08.997Z,96985.56
2023-09-08T02:27:37.415Z,96987.19
2023-09-08T02:30:06.191Z,96994.97
2023-09-08T02:32:36.179Z,96994.00
2023-09-08T02:35:05.228Z,96989.00
2023-09-08T02:37:33.461Z,96991.34
2023-09-08T02:40:02.202Z,96988.03
2023-09-08T02:42:30.398Z,96996.75
2023-09-08T02:45:00.034Z,96993.25
2023-09-08T02:47:28.776Z,96997.03
2023-09-08T02:49:58.175Z,97002.41
2023-09-08T02:52:27.942Z,97003.31
2023-09-08T02:54:56.277Z,97006.78
2023-09-08T02:57:24.830Z,97015.41
2023-09-08T02:59:53.877Z,97017.41
2023-09-08T03:02:26.974Z,97011.56
2023-09-08T03:04:56.075Z,97024.72
2023-09-08T03:07:24.917Z,97022.63
2023-09-08T03:09:53.173Z,97028.66
2023-09-08T03:12:21.760Z,97026.31
2023-09-08T03:14:50.381Z,97028.69
2023-09-08T03:17:19.621Z,97034.38
2023-09-08T03:19:48.226Z,97042.16
2023-09-08T03:22:16.786Z,97035.59
2023-09-08T03:24:45.863Z,97036.63
2023-09-08T03:27:14.192Z,97046.44
2023-09-08T03:29:42.851Z,97046.81
2023-09-08T03:32:11.378Z,97047.09
2023-09-08T03:34:40.202Z,97039.84
2023-09-08T03:37:08.471Z,97050.00
2023-09-08T03:39:36.750Z,97047.53
2023-09-08T03:42:06.056Z,97056.28
2023-09-08T03:44:35.169Z,97057.41
2023-09-08T03:47:06.618Z,97052.88
2023-09-08T03:49:35.237Z,97052.28
2023-09-08T03:52:07.047Z,97058.75
2023-09-08T03:54:35.855Z,97045.69
2023-09-08T03:57:04.646Z,97056.97
2023-09-08T03:59:33.269Z,97061.38
2023-09-08T04:02:01.857Z,97060.94
2023-09-08T04:04:30.101Z,97055.22
2023-09-08T04:06:58.403Z,97065.22
2023-09-08T04:09:27.655Z,97062.34
2023-09-08T04:11:56.699Z,97061.16
2023-09-08T04:14:25.509Z,97066.22
2023-09-08T04:16:54.590Z,97059.03
2023-09-08T04:19:23.181Z,97071.78
2023-09-08T04:21:51.820Z,97080.16
2023-09-08T04:24:20.355Z,97081.34
2023-09-08T04:26:52.078Z,97081.31
2023-09-08T04:29:21.266Z,97082.59
2023-09-08T04:31:49.899Z,97074.06
2023-09-08T04:34:20.951Z,97084.97
2023-09-08T04:36:49.404Z,97085.31
2023-09-08T04:39:19.074Z,97086.25
2023-09-08T04:41:47.842Z,97080.69
2023-09-08T04:44:16.192Z,97083.97
2023-09-08T04:46:47.827Z,97092.09
2023-09-08T04:49:16.921Z,97093.91
2023-09-08T04:51:46.554Z,97097.16
2023-09-08T04:54:15.280Z,97094.72
2023-09-08T04:56:44.065Z,97092.72
2023-09-08T04:59:12.785Z,97091.78
2023-09-08T05:01:43.963Z,97093.88
2023-09-08T05:04:12.883Z,97096.22
2023-09-08T05:06:41.384Z,97100.94
2023-09-08T05:09:10.037Z,97094.94
2023-09-08T05:11:38.661Z,97102.78
2023-09-08T05:14:07.273Z,97101.56
2023-09-08T05:16:35.661Z,97103.59
2023-09-08T05:19:05.085Z,97098.69
2023-09-08T05:21:34.739Z,97110.66
2023-09-08T05:24:04.480Z,97120.19
2023-09-08T05:26:33.386Z,97113.78
2023-09-08T05:29:03.115Z,97113.19
2023-09-08T05:31:32.413Z,97115.25
2023-09-08T05:34:00.675Z,97122.81
2023-09-08T05:36:28.912Z,97133.00
2023-09-08T05:38:58.302Z,97125.69
2023-09-08T05:41:27.274Z,97131.72
2023-09-08T05:43:55.743Z,97135.31
2023-09-08T05:46:24.529Z,97140.38
2023-09-08T05:48:54.205Z,97136.50
2023-09-08T05:51:24.011Z,97146.50
2023-09-08T05:53:52.727Z,97139.00
2023-09-08T05:56:21.992Z,97142.25
2023-09-08T05:58:51.018Z,97140.19
2023-09-08T06:01:21.604Z,97145.50
2023-09-08T06:03:53.894Z,97141.91
2023-09-08T06:06:22.709Z,97146.69
2023-09-08T06:08:51.300Z,97145.72
2023-09-08T06:11:20.700Z,97157.06
2023-09-08T06:13:49.814Z,97147.78
2023-09-08T06:16:18.838Z,97151.25
2023-09-08T06:18:47.190Z,97152.75
2023-09-08T06:21:16.298Z,97156.00
2023-09-08T06:23:44.791Z,97147.69
2023-09-08T06:26:14.470Z,97156.00
2023-09-08T06:28:45.204Z,97155.88
2023-09-08T06:31:13.804Z,97155.88
2023-09-08T06:33:42.346Z,97152.97
2023-09-08T06:36:11.488Z,97150.25
2023-09-08T06:38:40.174Z,97162.75
2023-09-08T06:41:15.583Z,97162.47
2023-09-08T06:43:44.175Z,97164.50
2023-09-08T06:46:12.741Z,97167.50
2023-09-08T06:48:41.513Z,97175.56
2023-09-08T06:51:10.186Z,97181.81
2023-09-08T06:53:39.864Z,97179.03
2023-09-08T06:56:08.374Z,97175.75
2023-09-08T06:58:37.349Z,97177.41
2023-09-08T07:01:09.072Z,97179.78
2023-09-08T07:03:38.872Z,97184.56
2023-09-08T07:06:08.677Z,97190.53
2023-09-08T07:08:37.906Z,97185.50
2023-09-08T07:11:06.653Z,97199.28
2023-09-08T07:13:35.505Z,97193.47
2023-09-08T07:16:04.562Z,97194.47
2023-09-08T07:18:35.580Z,97197.56
2023-09-08T07:21:05.295Z,97197.16
2023-09-08T07:23:33.928Z,97203.03
2023-09-08T07:26:04.460Z,97200.44
2023-09-08T07:28:33.559Z,97206.78
2023-09-08T07:31:06.511Z,97218.56
2023-09-08T07:33:35.196Z,97202.69
2023-09-08T07:36:10.834Z,97214.19
2023-09-08T07:38:39.452Z,97202.59
2023-09-08T07:41:08.634Z,97209.97
2023-09-08T07:43:37.137Z,97208.50
2023-09-08T07:46:06.049Z,97211.38
2023-09-08T07:48:35.910Z,97215.69
2023-09-08T07:51:04.764Z,97212.25
2023-09-08T07:53:34.201Z,97216.78
2023-09-08T07:56:03.580Z,97209.16
2023-09-08T07:58:33.929Z,97216.56
2023-09-08T08:01:05.200Z,97217.97
2023-09-08T08:03:33.878Z,97220.47
2023-09-08T08:06:02.207Z,97237.28
2023-09-08T08:08:30.892Z,97229.66
2023-09-08T08:11:02.076Z,97229.22
2023-09-08T08:13:30.372Z,97225.81
2023-09-08T08:16:01.997Z,97231.19
2023-09-08T08:18:31.495Z,97230.34
2023-09-08T08:21:00.256Z,97237.88
2023-09-08T08:23:29.046Z,97235.47
2023-09-08T08:25:59.174Z,97238.31
2023-09-08T08:28:27.635Z,97247.47
2023-09-08T08:30:56.200Z,97250.44
2023-09-08T08:33:24.894Z,97255.22
2023-09-08T08:35:54.210Z,97255.16
2023-09-08T08:38:22.653Z,97255.69
2023-09-08T08:40:50.943Z,97257.97
2023-09-08T08:43:19.676Z,97258.59
2023-09-08T08:45:49.788Z,97263.53
2023-09-08T08:48:20.830Z,97258.31
2023-09-08T08:50:51.398Z,97269.00
2023-09-08T08:53:24.215Z,97260.44
2023-09-08T08:55:56.671Z,97264.47
2023-09-08T08:58:25.843Z,97268.66
2023-09-08T09:00:55.976Z,97268.97
2023-09-08T09:03:28.524Z,97266.44
2023-09-08T09:05:57.119Z,97276.09
2023-09-08T09:08:27.077Z,97273.78
2023-09-08T09:10:55.850Z,97273.22
2023-09-08T09:13:24.121Z,97281.34
2023-09-08T09:15:52.882Z,97288.06
2023-09-08T09:18:22.504Z,97287.47
2023-09-08T09:21:02.406Z,97289.19
2023-09-08T09:23:37.683Z,97287.75
2023-09-08T09:26:06.779Z,97296.81
2023-09-08T09:28:35.548Z,97299.41
2023-09-08T09:31:06.500Z,97301.53
2023-09-08T09:33:36.187Z,97295.06
2023-09-08T09:36:04.597Z,97303.13
2023-09-08T09:38:33.238Z,97298.22
2023-09-08T09:41:02.080Z,97294.69
2023-09-08T09:43:31.033Z,97297.34
2023-09-08T09:46:01.168Z,97307.78
2023-09-08T09:48:30.988Z,97302.75
2023-09-08T09:51:00.817Z,97314.72
2023-09-08T09:53:31.323Z,97326.81
2023-09-08T09:56:00.161Z,97318.94
2023-09-08T09:58:29.513Z,97317.13
2023-09-08T10:00:59.490Z,97326.00
2023-09-08T10:03:28.904Z,97322.00
2023-09-08T10:05:57.942Z,97326.88
2023-09-08T10:08:26.499Z,97325.53
2023-09-08T10:10:55.005Z,97325.63
2023-09-08T10:13:33.257Z,97329.63
2023-09-08T10:16:07.769Z,97326.22
2023-09-08T10:18:37.786Z,97336.25
2023-09-08T10:21:08.025Z,97334.19
2023-09-08T10:23:49.862Z,97342.69
2023-09-08T10:26:19.555Z,97337.91
2023-09-08T10:28:48.801Z,97341.25
2023-09-08T10:31:17.398Z,97345.63
2023-09-08T10:33:47.288Z,97346.19
2023-09-08T10:36:16.560Z,97345.41
2023-09-08T10:38:45.227Z,97342.56
2023-09-08T10:41:19.610Z,97339.63
2023-09-08T10:43:57.444Z,97352.22
2023-09-08T10:46:28.665Z,97345.44
2023-09-08T10:49:02.969Z,97344.88
2023-09-08T10:51:32.972Z,97349.53
2023-09-08T10:54:01.824Z,97359.88
2023-09-08T10:56:57.493Z,97360.72
2023-09-08T10:59:37.195Z,97358.47
2023-09-08T11:02:08.767Z,97353.88
2023-09-08T11:04:37.569Z,97354.31
2023-09-08T11:07:06.203Z,97347.88
2023-09-08T11:09:41.010Z,97356.91
2023-09-08T11:12:11.128Z,97362.13
2023-09-08T11:14:39.506Z,97358.66
2023-09-08T11:17:11.932Z,97364.03
2023-09-08T11:19:51.773Z,97372.50
2023-09-08T11:22:20.342Z,97373.34
2023-09-08T11:24:48.749Z,97369.88
2023-09-08T11:27:17.070Z,97378.31
2023-09-08T11:29:51.087Z,97381.97
2023-09-08T11:32:18.982Z,97393.78
2023-09-08T11:34:47.554Z,97385.06
2023-09-08T11:37:18.644Z,97388.75
2023-09-08T11:39:47.876Z,97387.16
2023-09-08T11:42:17.867Z,97392.63
2023-09-08T11:44:47.161Z,97390.81
2023-09-08T11:47:17.169Z,97390.88
2023-09-08T11:49:45.399Z,97399.41
2023-09-08T11:52:13.790Z,97403.81
2023-09-08T11:54:52.206Z,97406.50
2023-09-08T11:57:30.484Z,97407.28
2023-09-08T11:59:59.773Z,97410.75
2023-09-08T12:02:30.981Z,97414.09
2023-09-08T12:04:59.184Z,97414.00
2023-09-08T12:07:27.681Z,97422.03
2023-09-08T12:09:57.343Z,97419.34
2023-09-08T12:12:29.298Z,97420.09
2023-09-08T12:14:57.958Z,97418.19
2023-09-08T12:17:26.411Z,97419.66
2023-09-08T12:19:54.705Z,97434.84
2023-09-08T12:22:23.654Z,97435.69
2023-09-08T12:25:00.441Z,97444.13
2023-09-08T12:27:29.005Z,97438.47
2023-09-08T12:30:02.151Z,97441.56
2023-09-08T12:32:34.768Z,97443.06
2023-09-08T12:35:06.115Z,97458.06
2023-09-08T12:37:37.243Z,97449.66
2023-09-08T12:40:06.653Z,97456.50
2023-09-08T12:42:35.685Z,97458.09
2023-09-08T12:45:15.477Z,97457.31
2023-09-08T12:47:44.998Z,97463.38
2023-09-08T12:50:13.678Z,97470.69
2023-09-08T12:52:42.714Z,97472.19
2023-09-08T12:55:11.132Z,97467.63
2023-09-08T12:57:39.983Z,97474.84
2023-09-08T13:00:09.165Z,97489.00
2023-09-08T13:02:37.528Z,97493.97
2023-09-08T13:05:06.460Z,97481.78
2023-09-08T13:07:35.922Z,97490.19
2023-09-08T13:10:04.682Z,97493.66
2023-09-08T13:12:33.348Z,97494.81
2023-09-08T13:15:02.659Z,97494.84
2023-09-08T13:17:31.166Z,97494.09
2023-09-08T13:19:59.783Z,97495.22
2023-09-08T13:22:28.277Z,97503.25
2023-09-08T13:24:56.656Z,97507.47
2023-09-08T13:27:25.303Z,97509.41
2023-09-08T13:29:56.099Z,97507.84
2023-09-08T13:32:24.725Z,97515.47
2023-09-08T13:34:53.423Z,97510.53
2023-09-08T13:37:23.335Z,97517.44
2023-09-08T13:39:52.964Z,97522.38
2023-09-08T13:42:21.212Z,97527.69
2023-09-08T13:44:49.957Z,97525.84
2023-09-08T13:47:18.809Z,97534.59
2023-09-08T13:49:48.816Z,97527.69
2023-09-08T13:52:19.425Z,97534.56
2023-09-08T13:54:54.073Z,97541.81
2023-09-08T13:57:34.904Z,97535.53
2023-09-08T14:00:04.963Z,97544.44
2023-09-08T14:05:10.977Z,97553.66
2023-09-08T14:07:46.016Z,97557.06
2023-09-08T14:10:27.498Z,97552.88
2023-09-08T14:12:57.675Z,97549.81
2023-09-08T14:15:26.408Z,97560.88
2023-09-08T14:17:54.792Z,97564.66
2023-09-08T14:20:23.182Z,97564.59
2023-09-08T14:22:51.578Z,97571.91
2023-09-08T14:25:21.270Z,97571.47
2023-09-08T14:27:49.728Z,97566.75
2023-09-08T14:30:18.748Z,97578.28
2023-09-08T14:32:47.853Z,97584.06
2023-09-08T14:35:16.631Z,97578.72
2023-09-08T14:37:45.249Z,97596.25
2023-09-08T14:40:15.102Z,97584.88
2023-09-08T14:42:44.071Z,97634.16
2023-09-08T14:45:16.051Z,97626.38
2023-09-08T14:47:44.438Z,97618.88
2023-09-08T14:50:12.965Z,97592.09
2023-09-08T14:52:41.456Z,97593.59
2023-09-08T14:55:10.317Z,97649.81
2023-09-08T14:57:39.403Z,97670.41
2023-09-08T15:00:08.723Z,97671.28
2023-09-08T15:02:38.407Z,97632.53
2023-09-08T15:05:07.395Z,97607.28
2023-09-08T15:07:36.597Z,97640.13
2023-09-08T15:10:07.092Z,97693.16
2023-09-08T15:12:36.317Z,97685.06
2023-09-08T15:15:09.059Z,97695.69
2023-09-08T15:17:37.475Z,97702.63
2023-09-08T15:20:06.225Z,97702.41
2023-09-08T15:22:34.795Z,97699.31
2023-09-08T15:25:03.170Z,97707.53
2023-09-08T15:27:32.231Z,97706.38
2023-09-08T15:30:03.424Z,97705.50
2023-09-08T15:32:34.516Z,97711.75
2023-09-08T15:35:04.852Z,97704.97
2023-09-08T15:37:33.375Z,97707.06
2023-09-08T15:40:03.621Z,97705.00
2023-09-08T15:42:36.267Z,97710.59
2023-09-08T15:45:05.814Z,97714.28
2023-09-08T15:47:34.050Z,97711.97
2023-09-08T15:50:05.731Z,97717.53
2023-09-08T15:52:36.816Z,97720.28
2023-09-08T15:55:06.977Z,97707.47
2023-09-08T15:57:35.326Z,97716.66
2023-09-08T16:00:04.519Z,97714.34
2023-09-08T16:02:32.854Z,97692.03
2023-09-08T16:05:01.847Z,97662.75
2023-09-08T16:07:30.374Z,97638.13
2023-09-08T16:09:59.463Z,97676.06
2023-09-08T16:12:27.968Z,97660.88
2023-09-08T16:14:57.175Z,97636.97
2023-09-08T16:17:29.604Z,97638.88
2023-09-08T16:19:58.428Z,97643.91
2023-09-08T16:22:27.009Z,97635.47
2023-09-08T16:24:55.536Z,97631.47
2023-09-08T16:27:23.900Z,97631.91
2023-09-08T16:29:52.771Z,97659.16
2023-09-08T16:32:21.569Z,97717.38
2023-09-08T16:34:51.860Z,97723.22
2023-09-08T16:37:22.883Z,97719.84
2023-09-08T16:39:51.360Z,97737.56
2023-09-08T16:42:21.119Z,97728.91
2023-09-08T16:44:49.846Z,97728.00
2023-09-08T16:47:18.374Z,97716.16
2023-09-08T16:49:47.109Z,97684.09
2023-09-08T16:52:15.328Z,97648.56
2023-09-08T16:54:43.917Z,97647.59
2023-09-08T16:57:12.658Z,97640.38
2023-09-08T16:59:40.985Z,97639.34
2023-09-08T17:02:09.753Z,97633.41
2023-09-08T17:04:39.937Z,97630.59
2023-09-08T17:07:08.690Z,97632.53
2023-09-08T17:09:37.016Z,97630.16
2023-09-08T17:12:05.944Z,97628.69
2023-09-08T17:14:34.119Z,97620.00
2023-09-08T17:17:03.573Z,97627.38
2023-09-08T17:19:33.602Z,97631.63
2023-09-08T17:22:01.935Z,97625.28
2023-09-08T17:24:30.650Z,97628.16
2023-09-08T17:26:59.768Z,97624.56
2023-09-08T17:29:28.228Z,97617.56
2023-09-08T17:31:59.323Z,97627.81
2023-09-08T17:34:28.093Z,97618.97
2023-09-08T17:36:58.049Z,97619.22
2023-09-08T17:39:26.528Z,97620.19
2023-09-08T17:41:54.801Z,97610.50
2023-09-08T17:44:23.249Z,97613.41
2023-09-08T17:46:52.451Z,97606.25
2023-09-08T17:49:20.947Z,97619.47
2023-09-08T17:51:49.698Z,97604.97
2023-09-08T17:54:18.277Z,97602.94
2023-09-08T17:56:47.329Z,97608.81
2023-09-08T17:59:15.548Z,97605.66
2023-09-08T18:01:43.826Z,97595.44
2023-09-08T18:04:12.347Z,97600.44
2023-09-08T18:06:43.547Z,97594.59
2023-09-08T18:09:11.883Z,97600.56
2023-09-08T18:11:40.338Z,97595.66
2023-09-08T18:14:08.929Z,97591.59
2023-09-08T18:16:37.473Z,97595.25
2023-09-08T18:19:09.006Z,97592.84
2023-09-08T18:21:37.311Z,97580.97
2023-09-08T18:24:06.512Z,97589.81
2023-09-08T18:26:35.036Z,97596.69
2023-09-08T18:29:08.924Z,97581.88
2023-09-08T18:31:37.425Z,97587.00
2023-09-08T18:34:06.550Z,97589.09
2023-09-08T18:36:35.130Z,97582.56
2023-09-08T18:39:03.718Z,97582.13
2023-09-08T18:41:32.560Z,97578.94
2023-09-08T18:44:01.670Z,97582.19
2023-09-08T18:46:30.027Z,97578.25
2023-09-08T18:48:59.015Z,97561.81
2023-09-08T18:51:28.270Z,97581.94
2023-09-08T18:53:56.790Z,97575.09
2023-09-08T18:56:25.037Z,97570.59
2023-09-08T18:58:54.556Z,97569.97
2023-09-08T19:01:23.544Z,97575.66
2023-09-08T19:03:52.229Z,97557.13
2023-09-08T19:06:20.885Z,97557.38
2023-09-08T19:08:49.113Z,97555.72
2023-09-08T19:11:18.965Z,97551.16
2023-09-08T19:13:47.517Z,97550.50
2023-09-08T19:16:16.404Z,97549.97
2023-09-08T19:18:45.665Z,97557.78
2023-09-08T19:21:14.672Z,97547.41
2023-09-08T19:23:42.942Z,97546.47
2023-09-08T19:26:11.583Z,97544.97
2023-09-08T19:28:42.532Z,97541.47
2023-09-08T19:31:10.915Z,97541.47
2023-09-08T19:33:39.590Z,97540.00
2023-09-08T19:36:08.387Z,97540.06
2023-09-08T19:38:36.930Z,97535.66
2023-09-08T19:41:06.149Z,97529.28
2023-09-08T19:43:35.055Z,97526.84
2023-09-08T19:46:06.151Z,97525.91
2023-09-08T19:48:40.768Z,97530.59
2023-09-08T19:51:09.545Z,97525.31
2023-09-08T19:53:37.985Z,97515.84
2023-09-08T19:56:06.518Z,97495.81
2023-09-08T19:58:34.788Z,97513.19
2023-09-08T20:01:11.952Z,97518.91
2023-09-08T20:03:43.351Z,97511.34
2023-09-08T20:06:18.545Z,97510.09
2023-09-08T20:08:46.882Z,97506.09
2023-09-08T20:11:16.089Z,97525.16
2023-09-08T20:13:46.071Z,97507.88
2023-09-08T20:16:14.296Z,97507.00
2023-09-08T20:18:42.914Z,97510.13
2023-09-08T20:21:11.713Z,97507.50
2023-09-08T20:23:40.279Z,97503.00
2023-09-08T20:26:08.860Z,97502.78
2023-09-08T20:28:37.180Z,97508.72
2023-09-08T20:31:16.411Z,97504.31
2023-09-08T20:33:47.184Z,97507.00
2023-09-08T20:36:19.022Z,97495.34
2023-09-08T20:38:47.473Z,97500.22
2023-09-08T20:41:15.850Z,97501.97
2023-09-08T20:43:44.658Z,97494.13
2023-09-08T20:46:13.914Z,97494.28
2023-09-08T20:48:42.865Z,97495.06
2023-09-08T20:51:16.484Z,97492.84
2023-09-08T20:53:45.051Z,97491.28
2023-09-08T20:56:14.071Z,97490.97
2023-09-08T20:58:44.313Z,97487.56
2023-09-08T21:01:13.189Z,97478.91
2023-09-08T21:03:44.642Z,97488.56
2023-09-08T21:06:15.449Z,97482.38
2023-09-08T21:08:43.808Z,97483.44
2023-09-08T21:11:12.204Z,97478.47
2023-09-08T21:13:43.070Z,97475.22
2023-09-08T21:16:11.645Z,97474.72
2023-09-08T21:18:40.020Z,97473.72
2023-09-08T21:21:08.247Z,97472.97
2023-09-08T21:23:37.777Z,97465.50
2023-09-08T21:26:07.609Z,97465.19
2023-09-08T21:28:36.242Z,97462.75
2023-09-08T21:31:12.817Z,97459.44
2023-09-08T21:33:41.322Z,97454.91
2023-09-08T21:36:10.028Z,97459.00
2023-09-08T21:38:42.074Z,97453.28
2023-09-08T21:41:11.989Z,97455.84
2023-09-08T21:43:41.341Z,97454.03
2023-09-08T21:46:10.650Z,97455.00
2023-09-08T21:48:41.501Z,97443.34
2023-09-08T21:51:10.092Z,97437.72
2023-09-08T21:53:38.563Z,97441.25
2023-09-08T21:56:07.309Z,97443.84
2023-09-08T21:58:35.681Z,97440.50
2023-09-08T22:01:04.220Z,97447.69
2023-09-08T22:03:32.655Z,97440.94
2023-09-08T22:06:04.490Z,97440.94
2023-09-08T22:08:32.919Z,97437.03
2023-09-08T22:11:05.582Z,97440.03
2023-09-08T22:13:37.568Z,97435.94
2023-09-08T22:16:06.378Z,97440.63
2023-09-08T22:18:35.481Z,97433.97
2023-09-08T22:21:03.749Z,97418.72
2023-09-08T22:23:33.705Z,97426.09
2023-09-08T22:26:03.044Z,97431.13
2023-09-08T22:28:31.419Z,97429.38
2023-09-08T22:30:59.907Z,97420.72
2023-09-08T22:33:28.426Z,97427.06
2023-09-08T22:35:56.847Z,97429.47
2023-09-08T22:38:25.130Z,97429.28
2023-09-08T22:40:53.181Z,97425.81
2023-09-08T22:43:22.264Z,97420.06
2023-09-08T22:45:50.656Z,97423.00
2023-09-08T22:48:19.537Z,97426.13
2023-09-08T22:50:48.973Z,97422.22
2023-09-08T22:53:18.494Z,97422.66
2023-09-08T22:55:46.833Z,97425.16
2023-09-08T22:58:18.078Z,97418.50
2023-09-08T23:00:46.115Z,97418.50
2023-09-08T23:03:14.501Z,97415.03
2023-09-08T23:05:42.846Z,97425.53
2023-09-08T23:08:10.972Z,97418.91
2023-09-08T23:10:39.082Z,97418.09
2023-09-08T23:13:07.390Z,97424.09
2023-09-08T23:15:36.200Z,97417.53
2023-09-08T23:18:04.886Z,97416.41
2023-09-08T23:20:33.186Z,97424.41
2023-09-08T23:23:01.261Z,97413.84
2023-09-08T23:25:29.892Z,97412.59
2023-09-08T23:27:58.120Z,97417.00
2023-09-08T23:30:26.436Z,97417.91
2023-09-08T23:32:55.749Z,97426.03
2023-09-08T23:35:26.731Z,97421.97
2023-09-08T23:37:54.739Z,97419.13
2023-09-08T23:40:23.080Z,97425.28
2023-09-08T23:42:51.386Z,97417.53
2023-09-08T23:45:20.226Z,97413.56
2023-09-08T23:47:48.862Z,97412.59
2023-09-08T23:50:17.755Z,97426.00
2023-09-08T23:52:48.433Z,97413.75
2023-09-08T23:55:20.281Z,97416.16
2023-09-08T23:57:48.602Z,97414.63
